createdAt,value
2022-09-06T00:02:00.622Z,98160.03
2022-09-06T00:04:33.160Z,98165.91
2022-09-06T00:07:03.391Z,98166.88
2022-09-06T00:09:33.520Z,98162.44
2022-09-06T00:12:03.744Z,98164.28
2022-09-06T00:14:33.883Z,98160.59
2022-09-06T00:17:04.923Z,98159.84
2022-09-06T00:19:37.785Z,98164.28
2022-09-06T00:22:08.113Z,98151.47
2022-09-06T00:24:39.203Z,98162.22
2022-09-06T00:27:11.285Z,98141.84
2022-09-06T00:29:41.572Z,98149.47
2022-09-06T00:32:11.929Z,98149.66
2022-09-06T00:34:44.774Z,98149.47
2022-09-06T00:37:14.933Z,98152.28
2022-09-06T00:39:45.074Z,98150.75
2022-09-06T00:42:16.542Z,98157.47
2022-09-06T00:44:46.755Z,98159.84
2022-09-06T00:47:16.999Z,98154.44
2022-09-06T00:49:54.132Z,98155.72
2022-09-06T00:52:25.202Z,98158.31
2022-09-06T00:54:56.610Z,98165.03
2022-09-06T00:57:29.103Z,98167.84
2022-09-06T00:59:59.858Z,98166.34
2022-09-06T01:02:30.515Z,98165.34
2022-09-06T01:05:04.583Z,98166.53
2022-09-06T01:07:50.329Z,98160.63
2022-09-06T01:10:44.453Z,98172.97
2022-09-06T01:13:29.225Z,98169.94
2022-09-06T01:16:13.573Z,98176.63
2022-09-06T01:19:07.075Z,98175.13
2022-09-06T01:21:50.196Z,98178.16
2022-09-06T01:25:01.925Z,98179.44
2022-09-06T01:28:09.928Z,98178.16
2022-09-06T01:30:49.081Z,98172.75
2022-09-06T01:33:27.457Z,98171.00
2022-09-06T01:36:03.743Z,98164.25
2022-09-06T01:38:34.055Z,98158.78
2022-09-06T01:41:04.259Z,98154.16
2022-09-06T01:43:42.481Z,98164.19
2022-09-06T01:46:22.512Z,98157.50
2022-09-06T01:49:13.995Z,98168.53
2022-09-06T01:52:02.348Z,98176.75
2022-09-06T01:54:50.739Z,98164.72
2022-09-06T01:57:44.707Z,98158.88
2022-09-06T02:00:20.409Z,98152.03
2022-09-06T02:03:03.566Z,98156.66
2022-09-06T02:05:40.576Z,98156.13
2022-09-06T02:08:17.734Z,98155.38
2022-09-06T02:10:53.666Z,98148.97
2022-09-06T02:13:27.883Z,98154.16
2022-09-06T02:16:06.088Z,98146.56
2022-09-06T02:18:43.278Z,98147.63
2022-09-06T02:21:17.131Z,98146.63
2022-09-06T02:23:49.943Z,98147.16
2022-09-06T02:26:25.470Z,98145.88
2022-09-06T02:28:55.839Z,98141.78
2022-09-06T02:31:38.414Z,98130.28
2022-09-06T02:34:09.966Z,98139.78
2022-09-06T02:36:40.900Z,98135.22
2022-09-06T02:39:10.989Z,98138.03
2022-09-06T02:41:42.964Z,98138.03
2022-09-06T02:44:13.131Z,98145.19
2022-09-06T02:46:45.851Z,98152.34
2022-09-06T02:49:15.960Z,98150.50
2022-09-06T02:51:46.233Z,98156.47
2022-09-06T02:54:16.490Z,98146.09
2022-09-06T02:56:51.515Z,98146.31
2022-09-06T02:59:22.448Z,98152.97
2022-09-06T03:01:55.259Z,98151.56
2022-09-06T03:04:25.460Z,98149.59
2022-09-06T03:06:56.450Z,98147.16
2022-09-06T03:09:26.602Z,98150.81
2022-09-06T03:11:56.814Z,98159.94
2022-09-06T03:14:27.165Z,98157.50
2022-09-06T03:17:00.011Z,98162.28
2022-09-06T03:19:30.191Z,98147.31
2022-09-06T03:22:00.405Z,98153.41
2022-09-06T03:24:30.757Z,98150.50
2022-09-06T03:27:00.999Z,98142.16
2022-09-06T03:29:31.190Z,98136.66
2022-09-06T03:32:04.353Z,98137.19
2022-09-06T03:34:34.567Z,98122.84
2022-09-06T03:37:04.803Z,98118.94
2022-09-06T03:39:35.868Z,98116.88
2022-09-06T03:42:06.313Z,98110.06
2022-09-06T03:44:36.474Z,98104.44
2022-09-06T03:47:09.595Z,98105.00
2022-09-06T03:49:39.932Z,98106.53
2022-09-06T03:52:10.101Z,98095.03
2022-09-06T03:54:40.917Z,98091.00
2022-09-06T03:57:11.311Z,98087.75
2022-09-06T03:59:41.545Z,98090.84
2022-09-06T04:02:14.540Z,98091.38
2022-09-06T04:04:44.771Z,98088.78
2022-09-06T04:07:15.014Z,98083.94
2022-09-06T04:09:45.178Z,98090.00
2022-09-06T04:12:15.315Z,98089.16
2022-09-06T04:14:45.961Z,98090.88
2022-09-06T04:17:18.492Z,98090.41
2022-09-06T04:19:48.646Z,98099.09
2022-09-06T04:22:18.836Z,98102.59
2022-09-06T04:24:49.036Z,98093.28
2022-09-06T04:27:19.257Z,98096.78
2022-09-06T04:29:49.464Z,98091.16
2022-09-06T04:32:22.342Z,98092.38
2022-09-06T04:34:52.807Z,98089.78
2022-09-06T04:37:23.011Z,98092.84
2022-09-06T04:39:53.276Z,98100.00
2022-09-06T04:42:23.556Z,98100.59
2022-09-06T04:44:53.640Z,98102.88
2022-09-06T04:47:26.712Z,98106.69
2022-09-06T04:49:57.142Z,98118.63
2022-09-06T04:52:30.259Z,98120.66
2022-09-06T04:55:00.567Z,98119.59
2022-09-06T04:57:31.031Z,98116.28
2022-09-06T05:00:01.348Z,98111.25
2022-09-06T05:02:34.426Z,98109.28
2022-09-06T05:05:05.197Z,98099.75
2022-09-06T05:07:35.134Z,98102.56
2022-09-06T05:10:05.386Z,98098.47
2022-09-06T05:12:35.568Z,98102.81
2022-09-06T05:15:06.086Z,98109.97
2022-09-06T05:17:38.772Z,98112.13
2022-09-06T05:20:10.778Z,98112.03
2022-09-06T05:22:40.936Z,98117.03
2022-09-06T05:25:13.051Z,98107.25
2022-09-06T05:27:43.165Z,98118.00
2022-09-06T05:30:15.535Z,98104.59
2022-09-06T05:32:48.394Z,98108.53
2022-09-06T05:35:18.609Z,98101.75
2022-09-06T05:37:48.735Z,98104.03
2022-09-06T05:40:18.923Z,98110.53
2022-09-06T05:42:49.125Z,98104.03
2022-09-06T05:45:19.676Z,98103.91
2022-09-06T05:47:52.137Z,98108.69
2022-09-06T05:50:22.246Z,98101.81
2022-09-06T05:52:52.360Z,98095.78
2022-09-06T05:55:22.486Z,98097.84
2022-09-06T05:57:52.574Z,98105.44
2022-09-06T06:00:23.546Z,98106.19
2022-09-06T06:02:56.219Z,98109.53
2022-09-06T06:05:26.311Z,98105.84
2022-09-06T06:07:58.221Z,98099.91
2022-09-06T06:10:28.434Z,98100.44
2022-09-06T06:13:00.466Z,98101.09
2022-09-06T06:15:30.579Z,98099.94
2022-09-06T06:18:03.287Z,98089.63
2022-09-06T06:20:33.481Z,98091.38
2022-09-06T06:23:03.561Z,98096.53
2022-09-06T06:25:33.662Z,98092.44
2022-09-06T06:28:04.200Z,98090.16
2022-09-06T06:30:34.074Z,98086.69
2022-09-06T06:33:06.889Z,98089.63
2022-09-06T06:35:40.032Z,98100.25
2022-09-06T06:38:10.360Z,98098.31
2022-09-06T06:40:43.423Z,98099.25
2022-09-06T06:43:13.512Z,98096.13
2022-09-06T06:45:43.636Z,98096.66
2022-09-06T06:48:16.353Z,98097.66
2022-09-06T06:50:46.858Z,98105.25
2022-09-06T06:53:16.736Z,98103.06
2022-09-06T06:55:51.088Z,98100.38
2022-09-06T06:58:22.131Z,98093.50
2022-09-06T07:00:52.412Z,98090.50
2022-09-06T07:03:25.213Z,98090.81
2022-09-06T07:06:12.399Z,98083.56
2022-09-06T07:08:43.806Z,98086.91
2022-09-06T07:11:16.246Z,98084.84
2022-09-06T07:13:46.726Z,98090.28
2022-09-06T07:16:19.353Z,98097.75
2022-09-06T07:18:55.037Z,98087.88
2022-09-06T07:21:43.437Z,98094.81
2022-09-06T07:24:14.655Z,98100.56
2022-09-06T07:29:35.300Z,98095.91
2022-09-06T07:32:12.808Z,98090.69
2022-09-06T07:34:45.545Z,98106.22
2022-09-06T07:37:15.726Z,98096.53
2022-09-06T07:39:45.922Z,98096.06
2022-09-06T07:42:16.358Z,98096.72
2022-09-06T07:44:46.483Z,98091.47
2022-09-06T07:53:10.791Z,98094.13
2022-09-06T07:55:45.100Z,98086.59
2022-09-06T07:58:15.419Z,98099.56
2022-09-06T08:00:46.064Z,98095.72
2022-09-06T08:03:16.199Z,98095.03
2022-09-06T08:06:08.549Z,98084.63
2022-09-06T08:11:32.245Z,98088.31
2022-09-06T08:14:05.051Z,98087.34
2022-09-06T08:16:38.398Z,98091.13
2022-09-06T08:19:12.392Z,98090.97
2022-09-06T08:21:45.268Z,98086.81
2022-09-06T08:24:15.356Z,98085.38
2022-09-06T08:26:45.566Z,98078.88
2022-09-06T08:29:15.893Z,98088.91
2022-09-06T08:31:47.504Z,98076.56
2022-09-06T08:34:17.891Z,98081.66
2022-09-06T08:36:50.742Z,98078.34
2022-09-06T08:39:21.160Z,98081.38
2022-09-06T08:41:56.408Z,98083.31
2022-09-06T08:47:23.353Z,98082.22
2022-09-06T08:49:57.333Z,98087.38
2022-09-06T08:53:13.130Z,98078.75
2022-09-06T08:55:42.049Z,98072.69
2022-09-06T08:58:38.691Z,98069.41
2022-09-06T09:01:15.614Z,98068.22
2022-09-06T09:03:47.140Z,98051.84
2022-09-06T09:06:17.478Z,98054.59
2022-09-06T09:09:02.771Z,98051.19
2022-09-06T09:11:33.688Z,98059.72
2022-09-06T09:14:11.182Z,98046.13
2022-09-06T09:16:41.550Z,98041.44
2022-09-06T09:19:12.190Z,98040.56
2022-09-06T09:21:43.440Z,98040.19
2022-09-06T09:24:18.725Z,98040.09
2022-09-06T09:26:56.897Z,98032.28
2022-09-06T09:29:30.274Z,98028.00
2022-09-06T09:32:02.289Z,98023.63
2022-09-06T09:34:34.951Z,98017.97
2022-09-06T09:40:16.816Z,98006.13
2022-09-06T09:42:48.030Z,98005.09
2022-09-06T09:45:29.624Z,98004.75
2022-09-06T09:48:00.498Z,97998.03
2022-09-06T09:50:34.085Z,97993.53
2022-09-06T09:53:13.843Z,97985.09
2022-09-06T09:55:47.493Z,97980.31
2022-09-06T09:58:34.643Z,97979.75
2022-09-06T10:01:23.752Z,97977.06
2022-09-06T10:09:39.716Z,97977.34
2022-09-06T10:12:21.484Z,97975.66
2022-09-06T10:14:52.787Z,97976.28
2022-09-06T10:17:31.868Z,97973.78
2022-09-06T10:20:09.444Z,97976.16
2022-09-06T10:22:54.690Z,97977.28
2022-09-06T10:25:44.037Z,97968.63
2022-09-06T10:28:34.875Z,97959.53
2022-09-06T10:31:36.763Z,97954.81
2022-09-06T10:34:37.361Z,97953.47
2022-09-06T10:37:23.213Z,97950.28
2022-09-06T10:39:59.785Z,97953.63
2022-09-06T10:42:42.671Z,97959.91
2022-09-06T10:45:33.018Z,97960.38
2022-09-06T10:48:13.934Z,97961.88
2022-09-06T10:50:52.915Z,97946.31
2022-09-06T10:53:46.056Z,97941.94
2022-09-06T10:56:21.781Z,97947.56
2022-09-06T11:02:01.160Z,97955.09
2022-09-06T11:07:34.596Z,97954.75
2022-09-06T11:10:13.983Z,97951.41
2022-09-06T11:12:47.504Z,97954.00
2022-09-06T11:15:20.022Z,97953.13
2022-09-06T11:17:58.960Z,97949.44
2022-09-06T11:20:38.521Z,97951.56
2022-09-06T11:23:34.310Z,97951.28
2022-09-06T11:26:36.213Z,97945.84
2022-09-06T11:29:10.434Z,97945.34
2022-09-06T11:34:57.122Z,97938.06
2022-09-06T11:37:31.288Z,97934.66
2022-09-06T11:43:17.510Z,97922.34
2022-09-06T11:45:51.813Z,97910.25
2022-09-06T11:48:52.451Z,97918.13
2022-09-06T11:51:41.239Z,97916.97
2022-09-06T11:54:29.959Z,97916.31
2022-09-06T11:57:05.500Z,97926.72
2022-09-06T11:59:45.432Z,97941.13
2022-09-06T12:02:39.088Z,97955.28
2022-09-06T12:05:32.500Z,97974.03
2022-09-06T12:08:34.534Z,98016.94
2022-09-06T12:11:27.054Z,98111.06
2022-09-06T12:14:03.802Z,98101.78
2022-09-06T12:17:27.255Z,98114.88
2022-09-06T12:20:07.338Z,98101.22
2022-09-06T12:23:04.583Z,98113.56
2022-09-06T12:25:59.613Z,98118.13
2022-09-06T12:28:49.994Z,98111.66
2022-09-06T12:31:34.027Z,98138.97
2022-09-06T12:34:12.794Z,98125.44
2022-09-06T12:36:54.440Z,98114.72
2022-09-06T12:39:25.190Z,98107.03
2022-09-06T12:41:59.784Z,98101.66
2022-09-06T12:44:37.114Z,98106.25
2022-09-06T12:47:14.210Z,98117.13
2022-09-06T12:49:44.503Z,98107.38
2022-09-06T12:52:18.453Z,98105.53
2022-09-06T12:54:52.005Z,98110.66
2022-09-06T12:57:27.465Z,98102.13
2022-09-06T13:00:00.053Z,98096.00
2022-09-06T13:02:38.806Z,98081.41
2022-09-06T13:05:12.626Z,98078.84
2022-09-06T13:07:46.772Z,98083.38
2022-09-06T13:10:21.974Z,98087.06
2022-09-06T13:12:55.896Z,98087.03
2022-09-06T13:15:29.364Z,98083.31
2022-09-06T13:18:27.826Z,98092.22
2022-09-06T13:21:03.678Z,98091.41
2022-09-06T13:23:44.965Z,98086.72
2022-09-06T13:26:15.168Z,98092.44
2022-09-06T13:28:47.959Z,98090.88
2022-09-06T13:31:26.328Z,98079.88
2022-09-06T13:34:00.882Z,98078.34
2022-09-06T13:36:33.862Z,98078.03
2022-09-06T13:39:04.618Z,98051.81
2022-09-06T13:41:44.554Z,98062.41
2022-09-06T13:44:31.881Z,98056.09
2022-09-06T13:47:02.305Z,98058.53
2022-09-06T13:49:33.155Z,98051.16
2022-09-06T13:52:05.979Z,98053.97
2022-09-06T13:54:36.929Z,98052.38
2022-09-06T13:57:07.827Z,98048.19
2022-09-06T13:59:42.143Z,98032.00
2022-09-06T14:02:16.098Z,98037.09
2022-09-06T14:04:46.793Z,98034.59
2022-09-06T14:07:16.980Z,98022.72
2022-09-06T14:09:47.603Z,98018.63
2022-09-06T14:12:17.599Z,98011.38
2022-09-06T14:14:50.354Z,97999.53
2022-09-06T14:17:20.599Z,97996.22
2022-09-06T14:19:50.901Z,97995.50
2022-09-06T14:22:21.100Z,97993.22
2022-09-06T14:24:51.512Z,97991.81
2022-09-06T14:27:22.325Z,97987.00
2022-09-06T14:29:55.064Z,97979.72
2022-09-06T14:32:26.928Z,97967.84
2022-09-06T14:34:57.041Z,97962.44
2022-09-06T14:37:27.298Z,97954.88
2022-09-06T14:39:57.928Z,97953.91
2022-09-06T14:42:28.570Z,97942.50
2022-09-06T14:45:01.395Z,97940.81
2022-09-06T14:47:31.968Z,97943.59
2022-09-06T14:50:02.461Z,97942.72
2022-09-06T14:52:32.662Z,97934.59
2022-09-06T14:55:02.564Z,97935.25
2022-09-06T14:57:32.739Z,97943.81
2022-09-06T15:00:08.708Z,97932.72
2022-09-06T15:02:39.357Z,97937.88
2022-09-06T15:05:10.726Z,97935.53
2022-09-06T15:07:41.056Z,97931.88
2022-09-06T15:10:12.174Z,97926.22
2022-09-06T15:12:42.345Z,97925.81
2022-09-06T15:15:15.779Z,97912.03
2022-09-06T15:17:45.952Z,97924.97
2022-09-06T15:20:17.108Z,97923.22
2022-09-06T15:22:47.333Z,97914.34
2022-09-06T15:25:17.648Z,97915.09
2022-09-06T15:27:47.830Z,97916.09
2022-09-06T15:30:20.872Z,97924.66
2022-09-06T15:32:51.173Z,97915.66
2022-09-06T15:35:21.354Z,97910.66
2022-09-06T15:37:51.529Z,97907.19
2022-09-06T15:40:24.492Z,97897.94
2022-09-06T15:42:54.666Z,97901.44
2022-09-06T15:45:27.583Z,97903.41
2022-09-06T15:47:58.441Z,97900.44
2022-09-06T15:50:49.833Z,97898.44
2022-09-06T15:53:18.903Z,97897.81
2022-09-06T15:56:02.777Z,97892.22
2022-09-06T15:58:34.049Z,97898.53
2022-09-06T16:01:10.770Z,97891.97
2022-09-06T16:03:42.964Z,97890.97
2022-09-06T16:08:58.947Z,97888.69
2022-09-06T16:11:30.428Z,97891.03
2022-09-06T16:14:00.575Z,97888.81
2022-09-06T16:16:33.571Z,97885.72
2022-09-06T16:19:04.024Z,97888.38
2022-09-06T16:21:37.005Z,97887.41
2022-09-06T16:24:10.805Z,97890.38
2022-09-06T16:26:43.958Z,97885.47
2022-09-06T16:29:18.271Z,97885.31
2022-09-06T16:31:54.244Z,97888.31
2022-09-06T16:34:24.894Z,97882.38
2022-09-06T16:36:57.036Z,97886.88
2022-09-06T16:39:27.381Z,97882.41
2022-09-06T16:41:57.637Z,97879.50
2022-09-06T16:44:27.923Z,97880.78
2022-09-06T16:47:01.733Z,97879.75
2022-09-06T16:49:31.949Z,97883.66
2022-09-06T16:52:02.101Z,97868.91
2022-09-06T16:54:32.272Z,97877.19
2022-09-06T16:57:04.413Z,97871.91
2022-09-06T16:59:34.581Z,97874.50
2022-09-06T17:02:07.498Z,97875.41
2022-09-06T17:04:37.816Z,97877.09
2022-09-06T17:07:08.164Z,97874.75
2022-09-06T17:09:38.312Z,97868.13
2022-09-06T17:12:09.436Z,97867.38
2022-09-06T17:14:39.648Z,97872.69
2022-09-06T17:17:10.208Z,97878.84
2022-09-06T17:19:42.527Z,97868.50
2022-09-06T17:22:14.999Z,97864.66
2022-09-06T17:24:45.369Z,97865.34
2022-09-06T17:27:15.709Z,97864.88
2022-09-06T17:29:45.915Z,97861.84
2022-09-06T17:32:18.787Z,97869.91
2022-09-06T17:34:49.131Z,97864.28
2022-09-06T17:37:19.336Z,97865.53
2022-09-06T17:39:49.590Z,97863.38
2022-09-06T17:42:19.942Z,97861.44
2022-09-06T17:44:50.241Z,97859.81
2022-09-06T17:47:23.062Z,97855.06
2022-09-06T17:49:53.263Z,97863.13
2022-09-06T17:52:23.886Z,97859.25
2022-09-06T17:54:54.718Z,97858.28
2022-09-06T17:57:24.591Z,97855.69
2022-09-06T17:59:54.748Z,97855.28
2022-09-06T18:02:27.556Z,97856.22
2022-09-06T18:04:57.794Z,97868.34
2022-09-06T18:07:28.057Z,97869.66
2022-09-06T18:09:58.663Z,97860.91
2022-09-06T18:12:31.053Z,97865.66
2022-09-06T18:15:02.067Z,97864.47
2022-09-06T18:17:34.903Z,97861.09
2022-09-06T18:20:06.213Z,97857.75
2022-09-06T18:22:38.242Z,97861.53
2022-09-06T18:25:10.109Z,97858.50
2022-09-06T18:27:40.311Z,97857.19
2022-09-06T18:30:14.885Z,97854.72
2022-09-06T18:32:47.912Z,97856.34
2022-09-06T18:35:18.435Z,97856.91
2022-09-06T18:37:48.364Z,97852.00
2022-09-06T18:40:18.681Z,97852.00
2022-09-06T18:42:48.800Z,97872.28
2022-09-06T18:45:19.350Z,97866.41
2022-09-06T18:47:52.125Z,97864.91
2022-09-06T18:50:22.992Z,97861.88
2022-09-06T18:52:53.139Z,97869.56
2022-09-06T18:55:23.350Z,97872.28
2022-09-06T18:57:53.684Z,97874.53
2022-09-06T19:00:26.610Z,97870.75
2022-09-06T19:02:59.423Z,97870.00
2022-09-06T19:05:29.715Z,97874.53
2022-09-06T19:07:59.974Z,97878.69
2022-09-06T19:10:30.298Z,97876.50
2022-09-06T19:13:01.051Z,97883.97
2022-09-06T19:15:31.443Z,97882.56
2022-09-06T19:18:04.226Z,97884.53
2022-09-06T19:20:34.592Z,97887.34
2022-09-06T19:23:05.290Z,97882.13
2022-09-06T19:25:35.197Z,97887.75
2022-09-06T19:28:05.940Z,97879.09
2022-09-06T19:30:36.178Z,97880.53
2022-09-06T19:33:09.007Z,97883.00
2022-09-06T19:35:55.742Z,97884.53
2022-09-06T19:38:42.082Z,97883.09
2022-09-06T19:41:20.642Z,97869.56
2022-09-06T19:43:53.780Z,97878.25
2022-09-06T19:46:27.092Z,97860.59
2022-09-06T19:49:00.647Z,97866.97
2022-09-06T19:51:31.730Z,97868.91
2022-09-06T19:54:02.507Z,97858.53
2022-09-06T19:56:35.360Z,97862.84
2022-09-06T19:59:07.837Z,97857.44
2022-09-06T20:01:40.717Z,97864.25
2022-09-06T20:04:15.632Z,97860.88
2022-09-06T20:06:46.127Z,97854.94
2022-09-06T20:09:18.493Z,97853.09
2022-09-06T20:11:48.897Z,97850.09
2022-09-06T20:14:19.147Z,97850.09
2022-09-06T20:16:49.390Z,97845.31
2022-09-06T20:19:22.351Z,97847.69
2022-09-06T20:21:52.697Z,97842.38
2022-09-06T20:24:22.865Z,97835.00
2022-09-06T20:26:55.020Z,97840.75
2022-09-06T20:29:25.265Z,97844.41
2022-09-06T20:31:55.485Z,97837.84
2022-09-06T20:34:28.317Z,97831.75
2022-09-06T20:36:58.556Z,97821.34
2022-09-06T20:39:29.177Z,97830.31
2022-09-06T20:41:59.380Z,97831.41
2022-09-06T20:44:29.761Z,97823.28
2022-09-06T20:47:01.088Z,97820.88
2022-09-06T20:49:33.933Z,97815.25
2022-09-06T20:52:04.271Z,97820.56
2022-09-06T20:54:34.539Z,97813.28
2022-09-06T20:57:04.808Z,97807.91
2022-09-06T20:59:35.074Z,97815.78
2022-09-06T21:02:05.649Z,97810.59
2022-09-06T21:04:38.831Z,97807.13
2022-09-06T21:07:09.083Z,97804.31
2022-09-06T21:09:39.348Z,97791.69
2022-09-06T21:12:10.026Z,97790.69
2022-09-06T21:14:39.945Z,97795.25
2022-09-06T21:17:10.199Z,97787.47
2022-09-06T21:19:43.161Z,97792.34
2022-09-06T21:22:13.787Z,97795.25
2022-09-06T21:24:43.714Z,97783.78
2022-09-06T21:27:14.128Z,97782.91
2022-09-06T21:29:44.298Z,97778.16
2022-09-06T21:32:14.426Z,97776.84
2022-09-06T21:34:47.207Z,97775.56
2022-09-06T21:37:17.917Z,97780.75
2022-09-06T21:39:47.902Z,97779.88
2022-09-06T21:42:18.675Z,97778.03
2022-09-06T21:44:48.602Z,97775.63
2022-09-06T21:47:18.840Z,97776.19
2022-09-06T21:49:51.849Z,97772.63
2022-09-06T21:52:22.067Z,97772.72
2022-09-06T21:54:52.261Z,97771.53
2022-09-06T21:57:22.514Z,97770.22
2022-09-06T21:59:52.786Z,97766.44
2022-09-06T22:02:23.780Z,97762.97
2022-09-06T22:04:56.673Z,97768.25
2022-09-06T22:07:26.923Z,97768.25
2022-09-06T22:09:57.120Z,97772.16
2022-09-06T22:12:27.370Z,97775.59
2022-09-06T22:14:57.590Z,97778.41
2022-09-06T22:17:27.837Z,97772.66
2022-09-06T22:20:00.692Z,97780.66
2022-09-06T22:22:31.234Z,97776.09
2022-09-06T22:25:01.456Z,97780.53
2022-09-06T22:27:31.622Z,97784.41
2022-09-06T22:30:02.252Z,97775.13
2022-09-06T22:32:32.480Z,97779.31
2022-09-06T22:35:06.206Z,97778.03
2022-09-06T22:37:36.992Z,97789.28
2022-09-06T22:40:08.141Z,97791.19
2022-09-06T22:42:38.792Z,97788.91
2022-09-06T22:45:10.864Z,97781.47
2022-09-06T22:47:41.085Z,97780.84
2022-09-06T22:50:14.304Z,97776.50
2022-09-06T22:52:44.491Z,97783.56
2022-09-06T22:55:14.677Z,97777.84
2022-09-06T22:57:45.058Z,97769.19
2022-09-06T23:00:18.611Z,97766.38
2022-09-06T23:02:48.832Z,97756.41
2022-09-06T23:05:21.787Z,97762.19
2022-09-06T23:07:52.248Z,97757.31
2022-09-06T23:10:23.114Z,97765.53
2022-09-06T23:12:54.834Z,97752.78
2022-09-06T23:15:26.183Z,97756.34
2022-09-06T23:17:56.481Z,97754.50
2022-09-06T23:20:29.380Z,97749.41
2022-09-06T23:22:59.683Z,97745.19
2022-09-06T23:25:29.919Z,97754.25
2022-09-06T23:28:02.102Z,97751.53
2022-09-06T23:30:32.373Z,97747.50
2022-09-06T23:33:02.576Z,97741.88
2022-09-06T23:35:35.419Z,97746.06
2022-09-06T23:38:05.706Z,97740.75
2022-09-06T23:40:35.969Z,97739.03
2022-09-06T23:43:06.781Z,97738.78
2022-09-06T23:45:36.985Z,97741.19
2022-09-06T23:48:07.514Z,97734.81
2022-09-06T23:50:40.344Z,97724.44
2022-09-06T23:53:10.632Z,97727.88
2022-09-06T23:55:40.945Z,97723.56
2022-09-06T23:58:12.241Z,97718.56
